sensor_id;sensor_type;location;lat;lon;timestamp;pressure;altitude;pressure_sealevel;temperature;humidity
13013;BME280;22580;57.670;12.006;2023-05-24T00:00:29;101365.44;;;21.16;81.04
13013;BME280;22580;57.670;12.006;2023-05-24T00:03:01;101342.47;;;20.50;84.08
13013;BME280;22580;57.670;12.006;2023-05-24T00:05:43;101394.69;;;22.39;76.51
13013;BME280;22580;57.670;12.006;2023-05-24T00:08:11;101386.69;;;22.45;75.15
13013;BME280;22580;57.670;12.006;2023-05-24T00:10:40;101386.53;;;22.47;75.31
13013;BME280;22580;57.670;12.006;2023-05-24T00:13:07;101415.28;;;22.17;76.41
13013;BME280;22580;57.670;12.006;2023-05-24T00:15:34;101403.38;;;22.18;76.43
13013;BME280;22580;57.670;12.006;2023-05-24T00:18:03;101384.28;;;22.10;77.30
13013;BME280;22580;57.670;12.006;2023-05-24T00:20:36;101401.84;;;22.32;75.53
13013;BME280;22580;57.670;12.006;2023-05-24T00:23:04;101377.81;;;22.11;75.71
13013;BME280;22580;57.670;12.006;2023-05-24T00:25:31;101372.22;;;22.12;75.73
13013;BME280;22580;57.670;12.006;2023-05-24T00:27:58;101380.91;;;22.24;75.43
13013;BME280;22580;57.670;12.006;2023-05-24T00:30:25;101412.56;;;22.33;75.24
13013;BME280;22580;57.670;12.006;2023-05-24T00:32:52;101369.81;;;22.09;75.01
13013;BME280;22580;57.670;12.006;2023-05-24T00:35:22;101367.72;;;21.87;75.28
13013;BME280;22580;57.670;12.006;2023-05-24T00:37:48;101395.72;;;22.21;74.31
13013;BME280;22580;57.670;12.006;2023-05-24T00:40:16;101407.94;;;22.09;74.82
13013;BME280;22580;57.670;12.006;2023-05-24T00:42:42;101411.19;;;22.13;73.76
13013;BME280;22580;57.670;12.006;2023-05-24T00:45:10;101375.22;;;22.01;72.88
13013;BME280;22580;57.670;12.006;2023-05-24T00:47:37;101422.63;;;22.41;73.21
13013;BME280;22580;57.670;12.006;2023-05-24T00:50:06;101411.03;;;22.22;72.66
13013;BME280;22580;57.670;12.006;2023-05-24T00:52:35;101384.56;;;21.90;72.75
13013;BME280;22580;57.670;12.006;2023-05-24T00:55:03;101372.44;;;21.69;73.85
13013;BME280;22580;57.670;12.006;2023-05-24T01:00:44;101424.66;;;21.64;74.39
13013;BME280;22580;57.670;12.006;2023-05-24T01:03:23;101392.53;;;21.25;75.89
13013;BME280;22580;57.670;12.006;2023-05-24T01:05:51;101440.91;;;21.48;76.02
13013;BME280;22580;57.670;12.006;2023-05-24T01:08:51;101441.00;;;21.30;77.00
13013;BME280;22580;57.670;12.006;2023-05-24T01:11:39;101432.63;;;21.23;77.60
13013;BME280;22580;57.670;12.006;2023-05-24T01:14:15;101421.75;;;21.23;77.54
13013;BME280;22580;57.670;12.006;2023-05-24T01:16:50;101440.94;;;21.22;79.27
13013;BME280;22580;57.670;12.006;2023-05-24T01:19:46;101442.19;;;21.78;75.87
13013;BME280;22580;57.670;12.006;2023-05-24T01:22:27;101407.09;;;21.50;75.74
13013;BME280;22580;57.670;12.006;2023-05-24T01:25:02;101400.25;;;21.38;75.82
13013;BME280;22580;57.670;12.006;2023-05-24T01:27:33;101426.41;;;21.39;76.23
13013;BME280;22580;57.670;12.006;2023-05-24T01:30:03;101379.00;;;20.82;77.57
13013;BME280;22580;57.670;12.006;2023-05-24T01:32:30;101429.34;;;21.20;77.37
13013;BME280;22580;57.670;12.006;2023-05-24T01:34:58;101409.72;;;20.82;78.41
13013;BME280;22580;57.670;12.006;2023-05-24T01:37:25;101400.47;;;20.67;79.63
13013;BME280;22580;57.670;12.006;2023-05-24T01:39:53;101432.59;;;20.98;79.35
13013;BME280;22580;57.670;12.006;2023-05-24T01:42:38;101422.59;;;20.72;81.10
13013;BME280;22580;57.670;12.006;2023-05-24T01:45:15;101429.38;;;19.70;85.99
13013;BME280;22580;57.670;12.006;2023-05-24T01:48:01;101418.56;;;19.23;88.22
13013;BME280;22580;57.670;12.006;2023-05-24T01:57:17;101379.38;;;21.21;79.50
13013;BME280;22580;57.670;12.006;2023-05-24T01:59:47;101417.38;;;21.31;79.13
13013;BME280;22580;57.670;12.006;2023-05-24T02:02:17;101430.69;;;21.16;80.55
13013;BME280;22580;57.670;12.006;2023-05-24T02:04:44;101426.56;;;21.12;80.35
13013;BME280;22580;57.670;12.006;2023-05-24T02:07:11;101379.41;;;20.95;80.04
13013;BME280;22580;57.670;12.006;2023-05-24T02:09:41;101410.00;;;20.97;80.82
13013;BME280;22580;57.670;12.006;2023-05-24T02:12:21;101416.16;;;21.25;79.99
13013;BME280;22580;57.670;12.006;2023-05-24T02:14:50;101438.16;;;21.40;79.79
13013;BME280;22580;57.670;12.006;2023-05-24T02:17:17;101415.28;;;20.99;80.42
13013;BME280;22580;57.670;12.006;2023-05-24T02:19:43;101438.75;;;20.56;83.02
13013;BME280;22580;57.670;12.006;2023-05-24T02:22:16;101391.41;;;19.70;85.22
13013;BME280;22580;57.670;12.006;2023-05-24T02:24:46;101403.25;;;20.75;82.43
13013;BME280;22580;57.670;12.006;2023-05-24T02:27:23;101423.38;;;21.16;80.82
13013;BME280;22580;57.670;12.006;2023-05-24T02:29:51;101396.88;;;21.18;79.47
13013;BME280;22580;57.670;12.006;2023-05-24T02:32:21;101389.84;;;21.34;78.65
13013;BME280;22580;57.670;12.006;2023-05-24T02:34:51;101442.00;;;21.71;78.08
13013;BME280;22580;57.670;12.006;2023-05-24T02:37:24;101410.53;;;21.69;76.62
13013;BME280;22580;57.670;12.006;2023-05-24T02:39:51;101438.72;;;22.02;75.40
13013;BME280;22580;57.670;12.006;2023-05-24T02:42:18;101406.34;;;21.90;75.13
13013;BME280;22580;57.670;12.006;2023-05-24T02:44:45;101395.28;;;21.92;74.08
13013;BME280;22580;57.670;12.006;2023-05-24T02:47:15;101448.13;;;22.23;73.15
13013;BME280;22580;57.670;12.006;2023-05-24T02:49:42;101442.22;;;21.86;73.21
13013;BME280;22580;57.670;12.006;2023-05-24T02:52:09;101437.31;;;21.98;73.74
13013;BME280;22580;57.670;12.006;2023-05-24T02:54:38;101428.63;;;21.86;72.44
13013;BME280;22580;57.670;12.006;2023-05-24T02:57:05;101411.28;;;21.37;72.88
13013;BME280;22580;57.670;12.006;2023-05-24T02:59:32;101457.44;;;21.54;74.11
13013;BME280;22580;57.670;12.006;2023-05-24T03:02:01;101417.78;;;21.44;73.82
13013;BME280;22580;57.670;12.006;2023-05-24T03:04:29;101427.03;;;21.25;74.41
13013;BME280;22580;57.670;12.006;2023-05-24T03:06:58;101454.47;;;21.40;75.18
13013;BME280;22580;57.670;12.006;2023-05-24T03:09:25;101421.41;;;21.01;76.16
13013;BME280;22580;57.670;12.006;2023-05-24T03:11:53;101453.91;;;21.10;76.83
13013;BME280;22580;57.670;12.006;2023-05-24T03:14:20;101447.91;;;20.99;76.42
13013;BME280;22580;57.670;12.006;2023-05-24T03:16:49;101449.88;;;20.88;77.66
13013;BME280;22580;57.670;12.006;2023-05-24T03:19:17;101445.72;;;20.76;77.71
13013;BME280;22580;57.670;12.006;2023-05-24T03:21:46;101438.34;;;20.94;77.33
13013;BME280;22580;57.670;12.006;2023-05-24T03:24:13;101431.47;;;21.08;75.98
13013;BME280;22580;57.670;12.006;2023-05-24T03:26:42;101424.81;;;21.03;75.30
13013;BME280;22580;57.670;12.006;2023-05-24T03:29:09;101438.56;;;21.01;75.54
13013;BME280;22580;57.670;12.006;2023-05-24T03:31:37;101422.00;;;20.86;76.15
13013;BME280;22580;57.670;12.006;2023-05-24T03:34:04;101434.00;;;21.02;75.80
13013;BME280;22580;57.670;12.006;2023-05-24T03:36:31;101469.03;;;21.31;74.83
13013;BME280;22580;57.670;12.006;2023-05-24T03:38:59;101423.66;;;21.05;74.03
13013;BME280;22580;57.670;12.006;2023-05-24T03:41:28;101450.88;;;21.13;74.59
13013;BME280;22580;57.670;12.006;2023-05-24T03:43:55;101433.28;;;21.00;74.89
13013;BME280;22580;57.670;12.006;2023-05-24T03:46:26;101451.38;;;21.09;75.08
13013;BME280;22580;57.670;12.006;2023-05-24T03:48:53;101449.53;;;20.91;75.99
13013;BME280;22580;57.670;12.006;2023-05-24T03:51:20;101430.78;;;20.80;77.00
13013;BME280;22580;57.670;12.006;2023-05-24T03:53:54;101456.00;;;20.90;77.55
13013;BME280;22580;57.670;12.006;2023-05-24T03:56:27;101444.44;;;20.88;77.20
13013;BME280;22580;57.670;12.006;2023-05-24T03:58:55;101421.13;;;20.78;77.41
13013;BME280;22580;57.670;12.006;2023-05-24T04:01:25;101411.56;;;20.74;77.66
13013;BME280;22580;57.670;12.006;2023-05-24T04:03:54;101437.50;;;20.94;78.30
13013;BME280;22580;57.670;12.006;2023-05-24T04:06:28;101471.22;;;21.27;78.01
13013;BME280;22580;57.670;12.006;2023-05-24T04:08:56;101475.88;;;21.35;78.23
13013;BME280;22580;57.670;12.006;2023-05-24T04:11:25;101474.38;;;21.40;77.80
13013;BME280;22580;57.670;12.006;2023-05-24T04:13:52;101444.06;;;21.35;78.05
13013;BME280;22580;57.670;12.006;2023-05-24T04:16:20;101443.25;;;21.17;78.76
13013;BME280;22580;57.670;12.006;2023-05-24T04:18:48;101448.50;;;21.36;77.82
13013;BME280;22580;57.670;12.006;2023-05-24T04:21:16;101488.59;;;21.68;77.84
13013;BME280;22580;57.670;12.006;2023-05-24T04:23:43;101477.69;;;21.60;78.22
13013;BME280;22580;57.670;12.006;2023-05-24T04:26:10;101462.03;;;21.54;78.73
13013;BME280;22580;57.670;12.006;2023-05-24T04:28:39;101464.75;;;20.58;82.18
13013;BME280;22580;57.670;12.006;2023-05-24T04:31:06;101491.84;;;19.87;86.64
13013;BME280;22580;57.670;12.006;2023-05-24T04:33:33;101470.72;;;19.54;88.14
13013;BME280;22580;57.670;12.006;2023-05-24T04:36:00;101439.25;;;18.29;94.24
13013;BME280;22580;57.670;12.006;2023-05-24T04:38:28;101501.13;;;19.85;92.02
13013;BME280;22580;57.670;12.006;2023-05-24T04:40:59;101493.31;;;21.06;85.27
13013;BME280;22580;57.670;12.006;2023-05-24T04:43:26;101445.75;;;20.84;84.32
13013;BME280;22580;57.670;12.006;2023-05-24T04:45:59;101500.31;;;21.69;81.82
13013;BME280;22580;57.670;12.006;2023-05-24T04:48:26;101472.13;;;21.78;80.34
13013;BME280;22580;57.670;12.006;2023-05-24T04:50:54;101470.38;;;22.03;79.35
13013;BME280;22580;57.670;12.006;2023-05-24T04:53:22;101497.44;;;21.62;82.13
13013;BME280;22580;57.670;12.006;2023-05-24T04:55:49;101478.75;;;21.75;81.01
13013;BME280;22580;57.670;12.006;2023-05-24T04:58:17;101511.63;;;22.16;80.34
13013;BME280;22580;57.670;12.006;2023-05-24T05:00:44;101515.91;;;21.07;86.18
13013;BME280;22580;57.670;12.006;2023-05-24T05:03:19;101496.38;;;21.97;81.92
13013;BME280;22580;57.670;12.006;2023-05-24T05:05:47;101491.84;;;21.64;82.57
13013;BME280;22580;57.670;12.006;2023-05-24T05:08:14;101487.09;;;21.74;81.66
13013;BME280;22580;57.670;12.006;2023-05-24T05:10:41;101513.69;;;20.31;88.75
13013;BME280;22580;57.670;12.006;2023-05-24T05:13:08;101501.44;;;20.00;90.31
13013;BME280;22580;57.670;12.006;2023-05-24T05:15:35;101462.44;;;20.89;87.19
13013;BME280;22580;57.670;12.006;2023-05-24T05:18:02;101485.69;;;22.04;83.27
13013;BME280;22580;57.670;12.006;2023-05-24T05:20:31;101483.22;;;22.27;81.26
13013;BME280;22580;57.670;12.006;2023-05-24T05:22:59;101525.06;;;22.17;82.28
13013;BME280;22580;57.670;12.006;2023-05-24T05:25:27;101458.59;;;21.94;81.73
13013;BME280;22580;57.670;12.006;2023-05-24T05:27:55;101464.16;;;22.35;80.43
13013;BME280;22580;57.670;12.006;2023-05-24T05:30:22;101481.72;;;22.40;80.86
13013;BME280;22580;57.670;12.006;2023-05-24T05:32:50;101473.53;;;22.40;79.92
13013;BME280;22580;57.670;12.006;2023-05-24T05:35:17;101489.03;;;22.56;80.70
13013;BME280;22580;57.670;12.006;2023-05-24T05:37:46;101493.47;;;22.73;79.43
13013;BME280;22580;57.670;12.006;2023-05-24T05:40:13;101483.91;;;22.69;79.79
13013;BME280;22580;57.670;12.006;2023-05-24T05:42:40;101490.94;;;22.96;78.88
13013;BME280;22580;57.670;12.006;2023-05-24T05:45:08;101492.97;;;23.10;77.86
13013;BME280;22580;57.670;12.006;2023-05-24T05:47:35;101513.94;;;23.18;78.24
13013;BME280;22580;57.670;12.006;2023-05-24T05:50:06;101536.94;;;23.32;78.31
13013;BME280;22580;57.670;12.006;2023-05-24T05:52:35;101472.69;;;23.13;77.80
13013;BME280;22580;57.670;12.006;2023-05-24T05:55:10;101536.69;;;23.49;77.75
13013;BME280;22580;57.670;12.006;2023-05-24T05:57:47;101492.47;;;22.99;78.42
13013;BME280;22580;57.670;12.006;2023-05-24T06:00:28;101523.31;;;23.24;77.15
13013;BME280;22580;57.670;12.006;2023-05-24T06:02:59;101502.81;;;23.36;76.88
13013;BME280;22580;57.670;12.006;2023-05-24T06:05:29;101504.47;;;23.45;76.94
13013;BME280;22580;57.670;12.006;2023-05-24T06:07:56;101524.91;;;23.65;76.98
13013;BME280;22580;57.670;12.006;2023-05-24T06:10:31;101528.84;;;23.63;76.93
13013;BME280;22580;57.670;12.006;2023-05-24T06:13:01;101491.72;;;23.37;76.80
13013;BME280;22580;57.670;12.006;2023-05-24T06:15:29;101534.97;;;23.73;77.25
13013;BME280;22580;57.670;12.006;2023-05-24T06:18:00;101516.13;;;23.94;75.31
13013;BME280;22580;57.670;12.006;2023-05-24T06:20:27;101551.28;;;23.89;76.79
13013;BME280;22580;57.670;12.006;2023-05-24T06:22:54;101501.06;;;23.98;75.40
13013;BME280;22580;57.670;12.006;2023-05-24T06:25:23;101502.97;;;24.29;74.67
13013;BME280;22580;57.670;12.006;2023-05-24T06:27:53;101540.72;;;24.56;74.68
13013;BME280;22580;57.670;12.006;2023-05-24T06:30:21;101549.88;;;24.63;75.03
13013;BME280;22580;57.670;12.006;2023-05-24T06:32:50;101506.41;;;24.23;75.57
13013;BME280;22580;57.670;12.006;2023-05-24T06:35:24;101480.97;;;24.22;75.87
13013;BME280;22580;57.670;12.006;2023-05-24T06:37:51;101568.31;;;24.92;74.38
13013;BME280;22580;57.670;12.006;2023-05-24T06:40:18;101537.19;;;24.93;73.29
13013;BME280;22580;57.670;12.006;2023-05-24T06:42:46;101547.47;;;24.91;73.28
13013;BME280;22580;57.670;12.006;2023-05-24T06:45:17;101560.94;;;25.15;72.94
13013;BME280;22580;57.670;12.006;2023-05-24T06:47:45;101529.31;;;24.98;72.51
13013;BME280;22580;57.670;12.006;2023-05-24T06:50:23;101577.94;;;25.26;72.78
13013;BME280;22580;57.670;12.006;2023-05-24T06:52:53;101580.13;;;25.30;72.80
13013;BME280;22580;57.670;12.006;2023-05-24T06:55:22;101530.66;;;25.02;72.65
13013;BME280;22580;57.670;12.006;2023-05-24T06:57:55;101579.88;;;25.40;72.12
13013;BME280;22580;57.670;12.006;2023-05-24T07:00:27;101536.34;;;25.30;72.07
13013;BME280;22580;57.670;12.006;2023-05-24T07:03:02;101542.69;;;25.45;71.27
13013;BME280;22580;57.670;12.006;2023-05-24T07:05:30;101546.56;;;25.51;71.10
13013;BME280;22580;57.670;12.006;2023-05-24T07:08:00;101567.53;;;25.59;71.23
13013;BME280;22580;57.670;12.006;2023-05-24T07:10:31;101541.25;;;25.72;69.53
13013;BME280;22580;57.670;12.006;2023-05-24T07:12:58;101582.28;;;26.02;70.04
13013;BME280;22580;57.670;12.006;2023-05-24T07:15:29;101534.06;;;25.71;70.46
13013;BME280;22580;57.670;12.006;2023-05-24T07:17:58;101577.47;;;24.54;76.54
13013;BME280;22580;57.670;12.006;2023-05-24T07:20:33;101592.03;;;24.46;77.56
13013;BME280;22580;57.670;12.006;2023-05-24T07:23:07;101526.59;;;25.80;68.83
13013;BME280;22580;57.670;12.006;2023-05-24T07:25:57;101587.63;;;26.54;65.67
13013;BME280;22580;57.670;12.006;2023-05-24T07:28:24;101593.28;;;26.67;64.04
13013;BME280;22580;57.670;12.006;2023-05-24T07:30:56;101598.19;;;26.72;60.32
13013;BME280;22580;57.670;12.006;2023-05-24T07:33:27;101550.69;;;26.50;59.08
13013;BME280;22580;57.670;12.006;2023-05-24T07:35:55;101554.09;;;26.73;58.37
13013;BME280;22580;57.670;12.006;2023-05-24T07:38:22;101602.19;;;26.55;59.87
13013;BME280;22580;57.670;12.006;2023-05-24T07:40:49;101568.53;;;26.61;59.08
13013;BME280;22580;57.670;12.006;2023-05-24T07:43:17;101599.66;;;26.53;60.32
13013;BME280;22580;57.670;12.006;2023-05-24T07:45:45;101575.75;;;26.47;59.92
13013;BME280;22580;57.670;12.006;2023-05-24T07:48:14;101600.63;;;24.97;64.45
13013;BME280;22580;57.670;12.006;2023-05-24T07:50:41;101612.94;;;24.62;67.14
13013;BME280;22580;57.670;12.006;2023-05-24T07:53:13;101621.00;;;24.86;67.80
13013;BME280;22580;57.670;12.006;2023-05-24T07:55:40;101593.31;;;24.58;69.31
13013;BME280;22580;57.670;12.006;2023-05-24T07:58:08;101611.38;;;24.98;66.94
13013;BME280;22580;57.670;12.006;2023-05-24T08:00:35;101611.91;;;25.16;66.51
13013;BME280;22580;57.670;12.006;2023-05-24T08:03:02;101607.84;;;25.50;65.07
13013;BME280;22580;57.670;12.006;2023-05-24T08:05:32;101607.38;;;25.46;65.32
13013;BME280;22580;57.670;12.006;2023-05-24T08:07:58;101596.50;;;25.76;63.39
13013;BME280;22580;57.670;12.006;2023-05-24T08:10:26;101608.03;;;25.48;63.33
13013;BME280;22580;57.670;12.006;2023-05-24T08:12:53;101598.03;;;25.56;63.59
13013;BME280;22580;57.670;12.006;2023-05-24T08:15:21;101606.31;;;27.23;57.75
13013;BME280;22580;57.670;12.006;2023-05-24T08:17:48;101586.09;;;25.86;61.95
13013;BME280;22580;57.670;12.006;2023-05-24T08:20:26;101599.53;;;25.96;64.40
13013;BME280;22580;57.670;12.006;2023-05-24T08:22:54;101580.19;;;25.60;66.25
13013;BME280;22580;57.670;12.006;2023-05-24T08:25:21;101587.25;;;25.92;65.62
13013;BME280;22580;57.670;12.006;2023-05-24T08:27:48;101592.53;;;25.93;66.39
13013;BME280;22580;57.670;12.006;2023-05-24T08:30:16;101550.69;;;25.32;66.69
13013;BME280;22580;57.670;12.006;2023-05-24T08:32:44;101566.28;;;25.46;66.72
13013;BME280;22580;57.670;12.006;2023-05-24T08:35:11;101589.94;;;26.36;64.20
13013;BME280;22580;57.670;12.006;2023-05-24T08:37:41;101598.56;;;26.33;64.91
13013;BME280;22580;57.670;12.006;2023-05-24T08:40:10;101594.13;;;27.88;57.54
13013;BME280;22580;57.670;12.006;2023-05-24T08:42:38;101573.03;;;27.95;55.91
13013;BME280;22580;57.670;12.006;2023-05-24T08:45:08;101601.47;;;28.15;53.89
13013;BME280;22580;57.670;12.006;2023-05-24T08:47:37;101578.41;;;27.75;54.56
13013;BME280;22580;57.670;12.006;2023-05-24T08:50:05;101588.50;;;28.02;53.77
13013;BME280;22580;57.670;12.006;2023-05-24T08:52:33;101578.97;;;28.33;50.44
13013;BME280;22580;57.670;12.006;2023-05-24T08:55:00;101557.91;;;28.12;50.29
13013;BME280;22580;57.670;12.006;2023-05-24T08:57:30;101610.56;;;28.16;50.91
13013;BME280;22580;57.670;12.006;2023-05-24T09:00:01;101607.75;;;28.37;50.08
13013;BME280;22580;57.670;12.006;2023-05-24T09:02:30;101568.94;;;28.19;49.24
13013;BME280;22580;57.670;12.006;2023-05-24T09:04:58;101601.69;;;28.61;48.68
13013;BME280;22580;57.670;12.006;2023-05-24T09:07:26;101627.25;;;28.49;48.71
13013;BME280;22580;57.670;12.006;2023-05-24T09:09:56;101597.91;;;28.21;48.71
13013;BME280;22580;57.670;12.006;2023-05-24T09:12:25;101621.03;;;28.27;50.30
13013;BME280;22580;57.670;12.006;2023-05-24T09:14:57;101625.81;;;28.59;48.97
13013;BME280;22580;57.670;12.006;2023-05-24T09:17:24;101601.28;;;28.58;48.81
13013;BME280;22580;57.670;12.006;2023-05-24T09:19:51;101618.22;;;28.75;47.03
13013;BME280;22580;57.670;12.006;2023-05-24T09:22:19;101630.63;;;29.05;46.74
13013;BME280;22580;57.670;12.006;2023-05-24T09:24:50;101610.16;;;28.66;48.37
13013;BME280;22580;57.670;12.006;2023-05-24T09:27:18;101592.88;;;28.86;48.60
13013;BME280;22580;57.670;12.006;2023-05-24T09:30:01;101639.34;;;28.54;52.05
13013;BME280;22580;57.670;12.006;2023-05-24T09:32:32;101605.72;;;28.59;52.23
13013;BME280;22580;57.670;12.006;2023-05-24T09:35:01;101635.34;;;28.57;53.39
13013;BME280;22580;57.670;12.006;2023-05-24T09:37:28;101617.25;;;28.95;52.52
13013;BME280;22580;57.670;12.006;2023-05-24T09:39:55;101624.47;;;28.35;54.54
13013;BME280;22580;57.670;12.006;2023-05-24T09:42:25;101619.47;;;28.59;53.85
13013;BME280;22580;57.670;12.006;2023-05-24T09:45:01;101629.97;;;28.96;54.01
13013;BME280;22580;57.670;12.006;2023-05-24T09:47:31;101614.94;;;29.06;53.19
13013;BME280;22580;57.670;12.006;2023-05-24T09:49:59;101566.66;;;28.96;52.59
13013;BME280;22580;57.670;12.006;2023-05-24T09:52:27;101603.59;;;28.54;53.84
13013;BME280;22580;57.670;12.006;2023-05-24T09:54:58;101621.69;;;28.90;50.42
13013;BME280;22580;57.670;12.006;2023-05-24T09:57:26;101630.19;;;29.08;51.73
13013;BME280;22580;57.670;12.006;2023-05-24T09:59:55;101616.00;;;28.98;51.58
13013;BME280;22580;57.670;12.006;2023-05-24T10:02:24;101631.44;;;28.99;54.27
13013;BME280;22580;57.670;12.006;2023-05-24T10:04:58;101602.66;;;29.08;53.23
13013;BME280;22580;57.670;12.006;2023-05-24T10:07:26;101647.44;;;28.76;54.87
13013;BME280;22580;57.670;12.006;2023-05-24T10:09:53;101588.56;;;28.16;55.77
13013;BME280;22580;57.670;12.006;2023-05-24T10:12:22;101623.22;;;27.75;59.22
13013;BME280;22580;57.670;12.006;2023-05-24T10:14:50;101630.69;;;28.64;55.02
13013;BME280;22580;57.670;12.006;2023-05-24T10:17:23;101643.91;;;28.88;54.88
13013;BME280;22580;57.670;12.006;2023-05-24T10:19:52;101653.00;;;28.82;53.96
13013;BME280;22580;57.670;12.006;2023-05-24T10:22:20;101634.41;;;28.91;53.78
13013;BME280;22580;57.670;12.006;2023-05-24T10:24:49;101626.13;;;28.91;53.18
13013;BME280;22580;57.670;12.006;2023-05-24T10:27:25;101656.78;;;28.81;53.40
13013;BME280;22580;57.670;12.006;2023-05-24T10:30:02;101627.34;;;28.82;53.88
13013;BME280;22580;57.670;12.006;2023-05-24T10:32:34;101642.75;;;28.69;52.41
13013;BME280;22580;57.670;12.006;2023-05-24T10:35:05;101640.59;;;27.55;56.63
13013;BME280;22580;57.670;12.006;2023-05-24T10:37:32;101630.31;;;28.26;54.32
13013;BME280;22580;57.670;12.006;2023-05-24T10:40:00;101642.00;;;28.89;52.55
13013;BME280;22580;57.670;12.006;2023-05-24T10:42:30;101661.25;;;28.34;52.31
13013;BME280;22580;57.670;12.006;2023-05-24T10:44:57;101657.97;;;28.65;51.13
13013;BME280;22580;57.670;12.006;2023-05-24T10:47:27;101623.13;;;28.25;51.86
13013;BME280;22580;57.670;12.006;2023-05-24T10:49:56;101641.44;;;28.46;52.10
13013;BME280;22580;57.670;12.006;2023-05-24T10:52:35;101633.22;;;28.18;52.53
13013;BME280;22580;57.670;12.006;2023-05-24T10:55:04;101661.28;;;28.06;53.34
13013;BME280;22580;57.670;12.006;2023-05-24T10:57:32;101617.75;;;27.54;54.64
13013;BME280;22580;57.670;12.006;2023-05-24T11:00:27;101668.84;;;27.27;54.28
13013;BME280;22580;57.670;12.006;2023-05-24T11:03:01;101662.06;;;27.23;53.96
13013;BME280;22580;57.670;12.006;2023-05-24T11:05:34;101652.56;;;27.47;53.41
13013;BME280;22580;57.670;12.006;2023-05-24T11:08:02;101634.38;;;27.67;54.09
13013;BME280;22580;57.670;12.006;2023-05-24T11:10:33;101624.91;;;27.70;51.57
13013;BME280;22580;57.670;12.006;2023-05-24T11:13:06;101663.03;;;27.58;50.95
13013;BME280;22580;57.670;12.006;2023-05-24T11:15:33;101674.34;;;26.55;54.58
13013;BME280;22580;57.670;12.006;2023-05-24T11:18:13;101663.88;;;27.16;52.40
13013;BME280;22580;57.670;12.006;2023-05-24T11:20:43;101676.44;;;25.94;57.73
13013;BME280;22580;57.670;12.006;2023-05-24T11:23:12;101662.44;;;28.66;48.29
13013;BME280;22580;57.670;12.006;2023-05-24T11:25:40;101660.75;;;28.72;47.26
13013;BME280;22580;57.670;12.006;2023-05-24T11:28:08;101644.03;;;28.67;47.51
13013;BME280;22580;57.670;12.006;2023-05-24T11:30:38;101642.09;;;28.54;47.31
13013;BME280;22580;57.670;12.006;2023-05-24T11:33:12;101602.72;;;28.47;47.31
13013;BME280;22580;57.670;12.006;2023-05-24T11:35:39;101652.03;;;29.16;48.39
13013;BME280;22580;57.670;12.006;2023-05-24T11:38:10;101640.19;;;29.62;44.99
13013;BME280;22580;57.670;12.006;2023-05-24T11:40:40;101644.59;;;30.16;44.26
13013;BME280;22580;57.670;12.006;2023-05-24T11:43:11;101641.75;;;30.36;42.34
13013;BME280;22580;57.670;12.006;2023-05-24T11:45:40;101612.00;;;29.14;42.71
13013;BME280;22580;57.670;12.006;2023-05-24T11:48:08;101649.97;;;29.45;41.53
13013;BME280;22580;57.670;12.006;2023-05-24T11:50:38;101641.03;;;29.82;41.73
13013;BME280;22580;57.670;12.006;2023-05-24T11:53:10;101644.38;;;30.24;40.97
13013;BME280;22580;57.670;12.006;2023-05-24T11:55:37;101644.56;;;30.29;39.61
13013;BME280;22580;57.670;12.006;2023-05-24T11:58:08;101654.56;;;29.97;40.69
13013;BME280;22580;57.670;12.006;2023-05-24T12:00:37;101651.41;;;30.00;40.89
13013;BME280;22580;57.670;12.006;2023-05-24T12:03:04;101635.25;;;30.75;39.91
13013;BME280;22580;57.670;12.006;2023-05-24T12:05:34;101646.78;;;30.58;38.44
13013;BME280;22580;57.670;12.006;2023-05-24T12:08:02;101660.38;;;30.47;37.42
13013;BME280;22580;57.670;12.006;2023-05-24T12:10:33;101666.69;;;29.83;38.61
13013;BME280;22580;57.670;12.006;2023-05-24T12:13:01;101653.53;;;29.91;39.33
13013;BME280;22580;57.670;12.006;2023-05-24T12:15:28;101674.09;;;29.76;38.32
13013;BME280;22580;57.670;12.006;2023-05-24T12:17:56;101648.88;;;28.58;40.04
13013;BME280;22580;57.670;12.006;2023-05-24T12:20:26;101616.63;;;28.32;40.78
13013;BME280;22580;57.670;12.006;2023-05-24T12:22:54;101625.19;;;29.45;40.08
13013;BME280;22580;57.670;12.006;2023-05-24T12:25:22;101606.88;;;29.83;39.74
13013;BME280;22580;57.670;12.006;2023-05-24T12:27:53;101642.06;;;30.14;36.98
13013;BME280;22580;57.670;12.006;2023-05-24T12:30:35;101621.72;;;29.95;38.05
13013;BME280;22580;57.670;12.006;2023-05-24T12:33:07;101616.19;;;29.89;39.27
13013;BME280;22580;57.670;12.006;2023-05-24T12:35:35;101641.25;;;29.61;38.36
13013;BME280;22580;57.670;12.006;2023-05-24T12:38:02;101636.59;;;29.55;38.80
13013;BME280;22580;57.670;12.006;2023-05-24T12:40:32;101647.56;;;29.94;37.96
13013;BME280;22580;57.670;12.006;2023-05-24T12:43:01;101660.31;;;30.02;37.85
13013;BME280;22580;57.670;12.006;2023-05-24T12:45:31;101650.91;;;28.91;38.95
13013;BME280;22580;57.670;12.006;2023-05-24T12:47:59;101624.47;;;29.89;38.25
13013;BME280;22580;57.670;12.006;2023-05-24T12:50:28;101645.69;;;29.75;37.75
13013;BME280;22580;57.670;12.006;2023-05-24T12:52:57;101656.75;;;30.59;37.59
13013;BME280;22580;57.670;12.006;2023-05-24T12:55:26;101648.50;;;30.97;36.44
13013;BME280;22580;57.670;12.006;2023-05-24T12:57:54;101636.16;;;30.55;36.29
13013;BME280;22580;57.670;12.006;2023-05-24T13:00:28;101662.66;;;30.70;35.21
13013;BME280;22580;57.670;12.006;2023-05-24T13:02:56;101658.03;;;30.50;35.87